WZZ946 LHBP-LRBV
Flight info
| Callsign | WZZ946 |
|---|---|
| Flight time | 0h 55m |
| Altitude | 37000 |
| Route | VETIK DCT UVERA DCT BUDOP DCT NERDI DCT ZULOC DCT LEBAT |
| Aircraft | A320/M-SDE1E2E3FGIJ1J4RWXY/LB1 |
Departure
| Time | 2026-05-06 12:23 |
|---|---|
| Airport | Budapest Liszt Ferenc International Airport (LHBP) |
Arrival
| Time | 2026-05-06 13:19 |
|---|---|
| Airport | Brașov-Ghimbav International Airport (LRBV) |
| Time | Latitude | Longitude | Altitude | Speed | Heading |
|---|---|---|---|---|---|
| 2026-05-06 11:48 | 47.43562 | 19.26389 | 458 ft | 0 kts | 222° |
| 2026-05-06 12:12 | 47.43563 | 19.26390 | 457 ft | 1 kts | 222° |
| 2026-05-06 12:12 | 47.43575 | 19.26407 | 476 ft | 3 kts | 229° |
| 2026-05-06 12:12 | 47.43586 | 19.26430 | 453 ft | 3 kts | 246° |
| 2026-05-06 12:12 | 47.43592 | 19.26457 | 454 ft | 3 kts | 278° |
| 2026-05-06 12:13 | 47.43588 | 19.26476 | 455 ft | 1 kts | 313° |
| 2026-05-06 12:13 | 47.43585 | 19.26480 | 456 ft | 0 kts | 313° |
| 2026-05-06 12:15 | 47.43587 | 19.26476 | 455 ft | 2 kts | 313° |
| 2026-05-06 12:16 | 47.43602 | 19.26453 | 454 ft | 4 kts | 313° |
| 2026-05-06 12:16 | 47.43626 | 19.26414 | 458 ft | 6 kts | 312° |
| 2026-05-06 12:16 | 47.43660 | 19.26359 | 458 ft | 8 kts | 314° |
| 2026-05-06 12:16 | 47.43716 | 19.26369 | 458 ft | 9 kts | 42° |
| 2026-05-06 12:17 | 47.43757 | 19.26424 | 458 ft | 9 kts | 35° |
| 2026-05-06 12:17 | 47.43801 | 19.26399 | 458 ft | 6 kts | 311° |
| 2026-05-06 12:17 | 47.43834 | 19.26343 | 458 ft | 9 kts | 312° |
| 2026-05-06 12:17 | 47.43869 | 19.26287 | 458 ft | 8 kts | 313° |
| 2026-05-06 12:18 | 47.43903 | 19.26234 | 458 ft | 7 kts | 313° |
| 2026-05-06 12:18 | 47.43948 | 19.26202 | 458 ft | 8 kts | 12° |
| 2026-05-06 12:18 | 47.43989 | 19.26253 | 459 ft | 6 kts | 43° |
| 2026-05-06 12:18 | 47.43994 | 19.26259 | 459 ft | 0 kts | 43° |
| 2026-05-06 12:19 | 47.43994 | 19.26260 | 459 ft | 0 kts | 43° |
| 2026-05-06 12:20 | 47.43999 | 19.26266 | 460 ft | 1 kts | 43° |
| 2026-05-06 12:20 | 47.44008 | 19.26278 | 458 ft | 2 kts | 43° |
| 2026-05-06 12:20 | 47.44018 | 19.26292 | 460 ft | 3 kts | 43° |
| 2026-05-06 12:20 | 47.44036 | 19.26318 | 462 ft | 4 kts | 46° |
| 2026-05-06 12:21 | 47.44052 | 19.26350 | 465 ft | 3 kts | 59° |
| 2026-05-06 12:21 | 47.44058 | 19.26368 | 466 ft | 1 kts | 63° |
| 2026-05-06 12:21 | 47.44062 | 19.26379 | 468 ft | 4 kts | 65° |
| 2026-05-06 12:21 | 47.44071 | 19.26450 | 471 ft | 7 kts | 88° |
| 2026-05-06 12:22 | 47.44056 | 19.26539 | 470 ft | 11 kts | 118° |
| 2026-05-06 12:22 | 47.43999 | 19.26637 | 469 ft | 14 kts | 133° |
| 2026-05-06 12:22 | 47.43855 | 19.26868 | 472 ft | 61 kts | 132° |
| 2026-05-06 12:22 | 47.43420 | 19.27577 | 468 ft | 122 kts | 132° |
| 2026-05-06 12:23 | 47.42708 | 19.28599 | 586 ft | 151 kts | 149° |
| 2026-05-06 12:23 | 47.41948 | 19.29667 | 1249 ft | 156 kts | 134° |
| 2026-05-06 12:23 | 47.41422 | 19.31109 | 1871 ft | 166 kts | 123° |
| 2026-05-06 12:23 | 47.40857 | 19.32723 | 2292 ft | 188 kts | 123° |
| 2026-05-06 12:24 | 47.40201 | 19.34535 | 2658 ft | 213 kts | 123° |
| 2026-05-06 12:24 | 47.39454 | 19.36562 | 3056 ft | 236 kts | 123° |
| 2026-05-06 12:24 | 47.38648 | 19.38747 | 3791 ft | 248 kts | 121° |
| 2026-05-06 12:24 | 47.38238 | 19.41351 | 4396 ft | 278 kts | 87° |
| 2026-05-06 12:25 | 47.38849 | 19.44116 | 5266 ft | 290 kts | 66° |
| 2026-05-06 12:25 | 47.39491 | 19.46935 | 6191 ft | 292 kts | 87° |
| 2026-05-06 12:25 | 47.39446 | 19.49932 | 7080 ft | 293 kts | 101° |
| 2026-05-06 12:25 | 47.39102 | 19.52903 | 8013 ft | 295 kts | 105° |
| 2026-05-06 12:26 | 47.38702 | 19.55898 | 8979 ft | 299 kts | 104° |
| 2026-05-06 12:26 | 47.38352 | 19.58948 | 9891 ft | 303 kts | 101° |
| 2026-05-06 12:26 | 47.38070 | 19.62110 | 10415 ft | 323 kts | 99° |
| 2026-05-06 12:26 | 47.37844 | 19.65514 | 10832 ft | 342 kts | 97° |
| 2026-05-06 12:27 | 47.37665 | 19.69062 | 11576 ft | 350 kts | 95° |
| 2026-05-06 12:27 | 47.37513 | 19.72666 | 12429 ft | 354 kts | 96° |
| 2026-05-06 12:27 | 47.37011 | 19.76229 | 13250 ft | 357 kts | 111° |
| 2026-05-06 12:27 | 47.36150 | 19.79683 | 14066 ft | 362 kts | 112° |
| 2026-05-06 12:28 | 47.35262 | 19.83176 | 14864 ft | 365 kts | 112° |
| 2026-05-06 12:28 | 47.34362 | 19.86684 | 15654 ft | 368 kts | 112° |
| 2026-05-06 12:28 | 47.33454 | 19.90226 | 16447 ft | 370 kts | 113° |
| 2026-05-06 12:28 | 47.32537 | 19.93803 | 17220 ft | 373 kts | 113° |
| 2026-05-06 12:29 | 47.31619 | 19.97396 | 17989 ft | 377 kts | 113° |
| 2026-05-06 12:29 | 47.30692 | 20.01014 | 18703 ft | 380 kts | 113° |
| 2026-05-06 12:29 | 47.29752 | 20.04680 | 19392 ft | 384 kts | 113° |
| 2026-05-06 12:29 | 47.28803 | 20.08370 | 20109 ft | 388 kts | 113° |
| 2026-05-06 12:30 | 47.27840 | 20.12114 | 20849 ft | 392 kts | 113° |
| 2026-05-06 12:30 | 47.26868 | 20.15880 | 21558 ft | 396 kts | 113° |
| 2026-05-06 12:30 | 47.25885 | 20.19687 | 22217 ft | 400 kts | 113° |
| 2026-05-06 12:30 | 47.24902 | 20.23542 | 22898 ft | 404 kts | 112° |
| 2026-05-06 12:31 | 47.23920 | 20.27440 | 23595 ft | 409 kts | 112° |
| 2026-05-06 12:31 | 47.22930 | 20.31384 | 24179 ft | 413 kts | 112° |
| 2026-05-06 12:31 | 47.21926 | 20.35371 | 24761 ft | 418 kts | 112° |
| 2026-05-06 12:31 | 47.20910 | 20.39388 | 25318 ft | 422 kts | 112° |
| 2026-05-06 12:32 | 47.19707 | 20.43351 | 25870 ft | 424 kts | 121° |
| 2026-05-06 12:32 | 47.18082 | 20.47046 | 26420 ft | 427 kts | 127° |
| 2026-05-06 12:32 | 47.16370 | 20.50644 | 26958 ft | 431 kts | 127° |
| 2026-05-06 12:32 | 47.14652 | 20.54272 | 27484 ft | 436 kts | 127° |
| 2026-05-06 12:33 | 47.12915 | 20.57948 | 28006 ft | 440 kts | 127° |
| 2026-05-06 12:33 | 47.11184 | 20.61609 | 28498 ft | 445 kts | 127° |
| 2026-05-06 12:33 | 47.09409 | 20.65363 | 29033 ft | 449 kts | 127° |
| 2026-05-06 12:33 | 47.07594 | 20.69191 | 29511 ft | 453 kts | 127° |
| 2026-05-06 12:34 | 47.05784 | 20.72999 | 29974 ft | 457 kts | 127° |
| 2026-05-06 12:34 | 47.03956 | 20.76825 | 30373 ft | 461 kts | 127° |
| 2026-05-06 12:34 | 47.02126 | 20.80645 | 30782 ft | 464 kts | 128° |
| 2026-05-06 12:34 | 47.00245 | 20.84570 | 31201 ft | 466 kts | 128° |
| 2026-05-06 12:35 | 46.98377 | 20.88471 | 31595 ft | 468 kts | 128° |
| 2026-05-06 12:35 | 46.96509 | 20.92373 | 32150 ft | 466 kts | 128° |
| 2026-05-06 12:35 | 46.94655 | 20.96247 | 32713 ft | 465 kts | 128° |
| 2026-05-06 12:35 | 46.92802 | 21.00113 | 33271 ft | 463 kts | 128° |
| 2026-05-06 12:36 | 46.90950 | 21.03964 | 33820 ft | 462 kts | 128° |
| 2026-05-06 12:36 | 46.89103 | 21.07794 | 34304 ft | 461 kts | 128° |
| 2026-05-06 12:36 | 46.87251 | 21.11628 | 34749 ft | 461 kts | 128° |
| 2026-05-06 12:36 | 46.85401 | 21.15450 | 35176 ft | 461 kts | 128° |
| 2026-05-06 12:37 | 46.83544 | 21.19288 | 35578 ft | 462 kts | 128° |
| 2026-05-06 12:37 | 46.81690 | 21.23115 | 35979 ft | 462 kts | 128° |
| 2026-05-06 12:37 | 46.79827 | 21.26951 | 36366 ft | 463 kts | 128° |
| 2026-05-06 12:37 | 46.77965 | 21.30782 | 36757 ft | 463 kts | 128° |
| 2026-05-06 12:38 | 46.76096 | 21.34622 | 36934 ft | 465 kts | 129° |
| 2026-05-06 12:38 | 46.74226 | 21.38463 | 36967 ft | 464 kts | 128° |
| 2026-05-06 12:38 | 46.70493 | 21.46111 | 36968 ft | 463 kts | 128° |
| 2026-05-06 12:39 | 46.66534 | 21.53384 | 36975 ft | 460 kts | 134° |
| 2026-05-06 12:39 | 46.62314 | 21.60401 | 36970 ft | 460 kts | 134° |
| 2026-05-06 12:40 | 46.58783 | 21.66266 | 36976 ft | 460 kts | 134° |
| 2026-05-06 12:40 | 46.53877 | 21.74410 | 36978 ft | 461 kts | 134° |
| 2026-05-06 12:41 | 46.50333 | 21.80277 | 36981 ft | 461 kts | 134° |
| 2026-05-06 12:41 | 46.46103 | 21.87260 | 36978 ft | 461 kts | 134° |
| 2026-05-06 12:42 | 46.41860 | 21.94254 | 36980 ft | 462 kts | 134° |
| 2026-05-06 12:42 | 46.37610 | 22.01226 | 36986 ft | 462 kts | 134° |
| 2026-05-06 12:43 | 46.33355 | 22.08183 | 36991 ft | 462 kts | 134° |
| 2026-05-06 12:43 | 46.29099 | 22.15150 | 36991 ft | 462 kts | 134° |
| 2026-05-06 12:44 | 46.24848 | 22.22095 | 36996 ft | 462 kts | 134° |
| 2026-05-06 12:44 | 46.20577 | 22.29026 | 36992 ft | 462 kts | 134° |
| 2026-05-06 12:45 | 46.16306 | 22.35944 | 36996 ft | 461 kts | 134° |
| 2026-05-06 12:46 | 46.09894 | 22.46310 | 36991 ft | 462 kts | 134° |
| 2026-05-06 12:46 | 46.05608 | 22.53209 | 36988 ft | 462 kts | 134° |
| 2026-05-06 12:47 | 46.01320 | 22.60105 | 36989 ft | 462 kts | 134° |
| 2026-05-06 12:47 | 45.97022 | 22.66992 | 36987 ft | 462 kts | 134° |
| 2026-05-06 12:48 | 45.92728 | 22.73869 | 36989 ft | 463 kts | 134° |
| 2026-05-06 12:48 | 45.88422 | 22.80731 | 36980 ft | 462 kts | 134° |
| 2026-05-06 12:49 | 45.84104 | 22.87588 | 36975 ft | 463 kts | 134° |
| 2026-05-06 12:49 | 45.79789 | 22.94434 | 36979 ft | 463 kts | 134° |
| 2026-05-06 12:50 | 45.75470 | 23.01279 | 36980 ft | 463 kts | 133° |
| 2026-05-06 12:50 | 45.71151 | 23.08116 | 36981 ft | 463 kts | 133° |
| 2026-05-06 12:51 | 45.66823 | 23.14944 | 36989 ft | 463 kts | 134° |
| 2026-05-06 12:51 | 45.62486 | 23.21756 | 36993 ft | 463 kts | 133° |
| 2026-05-06 12:52 | 45.58137 | 23.28570 | 36999 ft | 464 kts | 133° |
| 2026-05-06 12:52 | 45.53787 | 23.35375 | 37004 ft | 464 kts | 133° |
| 2026-05-06 12:53 | 45.49437 | 23.42161 | 37011 ft | 464 kts | 133° |
| 2026-05-06 12:53 | 45.45082 | 23.48941 | 37019 ft | 464 kts | 133° |
| 2026-05-06 12:54 | 45.40724 | 23.55706 | 37020 ft | 464 kts | 133° |
| 2026-05-06 12:54 | 45.36356 | 23.62470 | 37018 ft | 464 kts | 131° |
| 2026-05-06 12:55 | 45.32913 | 23.70170 | 37012 ft | 463 kts | 111° |
| 2026-05-06 12:55 | 45.31439 | 23.79007 | 37004 ft | 459 kts | 91° |
| 2026-05-06 12:56 | 45.31460 | 23.88047 | 36790 ft | 462 kts | 86° |
| 2026-05-06 12:56 | 45.31499 | 23.92625 | 36264 ft | 461 kts | 87° |
| 2026-05-06 12:56 | 45.31535 | 23.97170 | 35796 ft | 459 kts | 86° |
| 2026-05-06 12:56 | 45.31569 | 24.01694 | 35307 ft | 457 kts | 86° |
| 2026-05-06 12:57 | 45.31604 | 24.06183 | 34835 ft | 456 kts | 86° |
| 2026-05-06 12:57 | 45.31642 | 24.10687 | 34335 ft | 454 kts | 86° |
| 2026-05-06 12:57 | 45.31676 | 24.15171 | 33809 ft | 453 kts | 86° |
| 2026-05-06 12:57 | 45.31707 | 24.19638 | 33293 ft | 451 kts | 86° |
| 2026-05-06 12:58 | 45.31736 | 24.24085 | 32788 ft | 448 kts | 86° |
| 2026-05-06 12:58 | 45.31763 | 24.28491 | 32293 ft | 443 kts | 86° |
| 2026-05-06 12:58 | 45.31789 | 24.32851 | 31812 ft | 440 kts | 86° |
| 2026-05-06 12:58 | 45.31812 | 24.37182 | 31331 ft | 438 kts | 86° |
| 2026-05-06 12:59 | 45.31832 | 24.41504 | 30863 ft | 434 kts | 86° |
| 2026-05-06 12:59 | 45.31851 | 24.45778 | 30406 ft | 432 kts | 86° |
| 2026-05-06 12:59 | 45.31867 | 24.50031 | 29936 ft | 429 kts | 86° |
| 2026-05-06 12:59 | 45.31879 | 24.54248 | 29473 ft | 425 kts | 87° |
| 2026-05-06 13:00 | 45.31889 | 24.58422 | 29049 ft | 420 kts | 87° |
| 2026-05-06 13:00 | 45.31897 | 24.62551 | 28627 ft | 416 kts | 87° |
| 2026-05-06 13:00 | 45.31907 | 24.66639 | 28222 ft | 412 kts | 87° |
| 2026-05-06 13:00 | 45.31919 | 24.70693 | 27809 ft | 409 kts | 87° |
| 2026-05-06 13:01 | 45.31931 | 24.74722 | 27389 ft | 406 kts | 87° |
| 2026-05-06 13:01 | 45.31938 | 24.78723 | 26974 ft | 404 kts | 87° |
| 2026-05-06 13:01 | 45.31943 | 24.82713 | 26558 ft | 403 kts | 88° |
| 2026-05-06 13:01 | 45.31946 | 24.86685 | 26114 ft | 402 kts | 88° |
| 2026-05-06 13:02 | 45.31948 | 24.90643 | 25688 ft | 401 kts | 88° |
| 2026-05-06 13:02 | 45.31948 | 24.94605 | 25232 ft | 400 kts | 88° |
| 2026-05-06 13:02 | 45.31948 | 24.98557 | 24807 ft | 399 kts | 88° |
| 2026-05-06 13:02 | 45.32136 | 25.02459 | 24347 ft | 397 kts | 81° |
| 2026-05-06 13:03 | 45.32479 | 25.06332 | 24059 ft | 390 kts | 81° |
| 2026-05-06 13:03 | 45.32834 | 25.10136 | 23499 ft | 387 kts | 80° |
| 2026-05-06 13:03 | 45.33193 | 25.13909 | 22822 ft | 384 kts | 80° |
| 2026-05-06 13:03 | 45.33541 | 25.17617 | 22364 ft | 375 kts | 81° |
| 2026-05-06 13:04 | 45.33881 | 25.21281 | 21904 ft | 373 kts | 81° |
| 2026-05-06 13:04 | 45.34214 | 25.24926 | 21441 ft | 371 kts | 81° |
| 2026-05-06 13:04 | 45.34540 | 25.28558 | 20988 ft | 369 kts | 81° |
| 2026-05-06 13:04 | 45.34859 | 25.32164 | 20506 ft | 367 kts | 82° |
| 2026-05-06 13:05 | 45.35178 | 25.35760 | 20049 ft | 365 kts | 82° |
| 2026-05-06 13:05 | 45.35494 | 25.39326 | 19599 ft | 363 kts | 82° |
| 2026-05-06 13:05 | 45.35804 | 25.42866 | 19194 ft | 360 kts | 82° |
| 2026-05-06 13:05 | 45.36109 | 25.46372 | 18808 ft | 356 kts | 82° |
| 2026-05-06 13:06 | 45.36503 | 25.49832 | 18427 ft | 351 kts | 72° |
| 2026-05-06 13:06 | 45.37635 | 25.52838 | 18005 ft | 346 kts | 48° |
| 2026-05-06 13:06 | 45.39525 | 25.54881 | 17443 ft | 342 kts | 24° |
| 2026-05-06 13:06 | 45.41821 | 25.55586 | 16896 ft | 338 kts | 359° |
| 2026-05-06 13:07 | 45.44139 | 25.55349 | 16463 ft | 331 kts | 355° |
| 2026-05-06 13:07 | 45.46155 | 25.55101 | 16078 ft | 326 kts | 355° |
| 2026-05-06 13:07 | 45.48398 | 25.54823 | 15649 ft | 321 kts | 355° |
| 2026-05-06 13:07 | 45.50613 | 25.54552 | 15224 ft | 317 kts | 355° |
| 2026-05-06 13:08 | 45.52794 | 25.54291 | 14793 ft | 313 kts | 355° |
| 2026-05-06 13:08 | 45.54935 | 25.54036 | 14360 ft | 303 kts | 355° |
| 2026-05-06 13:08 | 45.57004 | 25.53788 | 13912 ft | 295 kts | 355° |
| 2026-05-06 13:08 | 45.59030 | 25.53545 | 13407 ft | 288 kts | 355° |
| 2026-05-06 13:09 | 45.61005 | 25.53308 | 12950 ft | 281 kts | 355° |
| 2026-05-06 13:09 | 45.62930 | 25.53079 | 12544 ft | 277 kts | 355° |
| 2026-05-06 13:09 | 45.64858 | 25.52848 | 12186 ft | 278 kts | 355° |
| 2026-05-06 13:09 | 45.66782 | 25.52633 | 11875 ft | 277 kts | 358° |
| 2026-05-06 13:10 | 45.68679 | 25.52974 | 11572 ft | 275 kts | 17° |
| 2026-05-06 13:10 | 45.70385 | 25.54162 | 11330 ft | 273 kts | 36° |
| 2026-05-06 13:10 | 45.71727 | 25.56056 | 11081 ft | 271 kts | 54° |
| 2026-05-06 13:10 | 45.72595 | 25.58425 | 10833 ft | 269 kts | 66° |
| 2026-05-06 13:11 | 45.73318 | 25.60895 | 10524 ft | 270 kts | 66° |
| 2026-05-06 13:11 | 45.74051 | 25.63377 | 10170 ft | 269 kts | 66° |
| 2026-05-06 13:11 | 45.74771 | 25.65807 | 9831 ft | 262 kts | 66° |
| 2026-05-06 13:11 | 45.75478 | 25.68196 | 9480 ft | 260 kts | 66° |
| 2026-05-06 13:12 | 45.76180 | 25.70561 | 9138 ft | 256 kts | 66° |
| 2026-05-06 13:12 | 45.76870 | 25.72889 | 8808 ft | 252 kts | 66° |
| 2026-05-06 13:12 | 45.77549 | 25.75188 | 8487 ft | 250 kts | 67° |
| 2026-05-06 13:12 | 45.78264 | 25.77445 | 8141 ft | 248 kts | 57° |
| 2026-05-06 13:13 | 45.79537 | 25.78995 | 7742 ft | 241 kts | 19° |
| 2026-05-06 13:13 | 45.81150 | 25.79156 | 7397 ft | 232 kts | 344° |
| 2026-05-06 13:13 | 45.82561 | 25.78140 | 7084 ft | 224 kts | 326° |
| 2026-05-06 13:13 | 45.83820 | 25.76861 | 6766 ft | 221 kts | 322° |
| 2026-05-06 13:14 | 45.84888 | 25.75310 | 6459 ft | 219 kts | 303° |
| 2026-05-06 13:14 | 45.85544 | 25.73350 | 6131 ft | 219 kts | 284° |
| 2026-05-06 13:14 | 45.85718 | 25.71171 | 5784 ft | 222 kts | 265° |
| 2026-05-06 13:14 | 45.85376 | 25.68997 | 5312 ft | 231 kts | 245° |
| 2026-05-06 13:15 | 45.84490 | 25.67060 | 4864 ft | 233 kts | 224° |
| 2026-05-06 13:15 | 45.83236 | 25.65655 | 4529 ft | 228 kts | 214° |
| 2026-05-06 13:15 | 45.81966 | 25.64302 | 4184 ft | 224 kts | 215° |
| 2026-05-06 13:15 | 45.80748 | 25.62999 | 3905 ft | 213 kts | 214° |
| 2026-05-06 13:16 | 45.79583 | 25.61767 | 3668 ft | 204 kts | 215° |
| 2026-05-06 13:16 | 45.78845 | 25.60989 | 3490 ft | 195 kts | 214° |
| 2026-05-06 13:16 | 45.77429 | 25.59500 | 3128 ft | 180 kts | 214° |
| 2026-05-06 13:16 | 45.76461 | 25.58481 | 2920 ft | 166 kts | 215° |
| 2026-05-06 13:17 | 45.75852 | 25.57841 | 2774 ft | 161 kts | 214° |
| 2026-05-06 13:17 | 45.74687 | 25.56621 | 2487 ft | 151 kts | 214° |
| 2026-05-06 13:17 | 45.73863 | 25.55733 | 2307 ft | 146 kts | 215° |
| 2026-05-06 13:17 | 45.73044 | 25.54888 | 2117 ft | 144 kts | 214° |
| 2026-05-06 13:18 | 45.72507 | 25.54325 | 1989 ft | 144 kts | 215° |
| 2026-05-06 13:18 | 45.71433 | 25.53202 | 1787 ft | 140 kts | 215° |
| 2026-05-06 13:18 | 45.70946 | 25.52692 | 1771 ft | 120 kts | 216° |
| 2026-05-06 13:18 | 45.70409 | 25.52131 | 1768 ft | 71 kts | 216° |
| 2026-05-06 13:19 | 45.70112 | 25.51820 | 1766 ft | 47 kts | 216° |
| 2026-05-06 13:19 | 45.69885 | 25.51582 | 1766 ft | 35 kts | 216° |
| 2026-05-06 13:19 | 45.69724 | 25.51412 | 1769 ft | 20 kts | 216° |
| 2026-05-06 13:19 | 45.69640 | 25.51327 | 1768 ft | 10 kts | 215° |
| 2026-05-06 13:20 | 45.69586 | 25.51334 | 1769 ft | 7 kts | 124° |
| 2026-05-06 13:20 | 45.69554 | 25.51400 | 1767 ft | 10 kts | 126° |
| 2026-05-06 13:20 | 45.69520 | 25.51464 | 1768 ft | 7 kts | 127° |
| 2026-05-06 13:20 | 45.69512 | 25.51521 | 1768 ft | 6 kts | 58° |
| 2026-05-06 13:21 | 45.69521 | 25.51531 | 1765 ft | 0 kts | 37° |
| 2026-05-06 13:21 | 45.69521 | 25.51532 | 1765 ft | 1 kts | 37° |
| 2026-05-06 13:21 | 45.69532 | 25.51544 | 1765 ft | 3 kts | 37° |
| 2026-05-06 13:21 | 45.69531 | 25.51574 | 1766 ft | 4 kts | 113° |
| 2026-05-06 13:22 | 45.69510 | 25.51616 | 1770 ft | 6 kts | 126° |
| 2026-05-06 13:22 | 45.69501 | 25.51634 | 1768 ft | 3 kts | 125° |
| 2026-05-06 13:22 | 45.69494 | 25.51648 | 1769 ft | 0 kts | 125° |